Time;durP1;ratioP1;P1;durP2;ratioP2;P2;SDS_P1;SDS_P2;PMS_P1;PMS_P2;Temp;Humidity;BMP_temperature;BMP_pressure;BME280_temperature;BME280_humidity;BME280_pressure;Samples;Min_cycle;Max_cycle;Signal;HPM_P1;HPM_P2
2022/07/02 00:00:46;;;;;;;6.35;2.25;;;;;;;13.50;nan;101922.09;5054000;28;20041;-70
2022/07/02 00:03:14;;;;;;;6.32;2.25;;;;;;;13.91;nan;101998.56;5052854;28;20040;-70
2022/07/02 00:05:46;;;;;;;8.40;2.75;;;;;;;13.75;nan;101964.59;5053747;28;20044;-70
2022/07/02 00:08:12;;;;;;;4.82;2.35;;;;;;;13.89;nan;102000.38;5053690;28;20067;-69
2022/07/02 00:10:38;;;;;;;6.03;2.33;;;;;;;13.48;nan;101918.63;5053495;28;20403;-69
2022/07/02 00:13:05;;;;;;;14.38;2.75;;;;;;;13.53;nan;101932.59;5053345;28;20029;-69
2022/07/02 00:15:30;;;;;;;7.13;2.30;;;;;;;13.40;nan;101926.75;5053488;28;20379;-70
2022/07/02 00:17:56;;;;;;;7.93;2.60;;;;;;;13.40;nan;101924.13;5053416;28;20120;-69
2022/07/02 00:20:22;;;;;;;7.05;2.20;;;;;;;13.71;nan;101978.84;5053437;28;20037;-69
2022/07/02 00:22:47;;;;;;;5.70;2.38;;;;;;;13.66;nan;101978.97;5053475;28;20036;-69
2022/07/02 00:25:13;;;;;;;7.18;2.38;;;;;;;13.21;nan;101922.88;5052171;28;20542;-70
2022/07/02 00:27:40;;;;;;;6.78;2.97;;;;;;;13.22;nan;101931.69;5053042;28;20033;-70
2022/07/02 00:30:07;;;;;;;7.35;2.65;;;;;;;13.43;nan;101976.94;5052933;28;20462;-69
2022/07/02 00:32:34;;;;;;;7.22;2.70;;;;;;;12.82;nan;101885.06;5051887;28;20060;-69
2022/07/02 00:35:04;;;;;;;5.28;2.15;;;;;;;13.34;nan;101982.44;5035154;28;20036;-70
2022/07/02 00:37:30;;;;;;;4.85;2.13;;;;;;;13.32;nan;101978.13;5052867;28;20032;-67
2022/07/02 00:39:56;;;;;;;5.38;2.20;;;;;;;13.20;nan;101958.16;5051571;28;20468;-67
2022/07/02 00:42:25;;;;;;;7.75;2.70;;;;;;;13.37;nan;101981.50;5051426;28;20045;-70
2022/07/02 00:44:51;;;;;;;5.22;1.83;;;;;;;13.38;nan;101977.97;5051857;28;20064;-71
2022/07/02 00:47:16;;;;;;;4.68;1.73;;;;;;;13.35;nan;101984.19;5052852;28;20484;-71
2022/07/02 00:49:42;;;;;;;7.78;2.80;;;;;;;13.32;nan;101991.34;5051665;28;20043;-70
2022/07/02 00:52:07;;;;;;;5.65;2.00;;;;;;;13.17;nan;101970.56;5051576;28;20036;-68
2022/07/02 00:54:35;;;;;;;5.25;1.60;;;;;;;13.25;nan;101984.50;5052662;28;20036;-69
2022/07/02 00:57:01;;;;;;;4.90;1.95;;;;;;;12.92;nan;101923.59;5051808;28;20520;-69
2022/07/02 00:59:26;;;;;;;6.80;1.63;;;;;;;12.97;nan;101932.25;5052403;28;20503;-68
2022/07/02 01:01:52;;;;;;;4.63;1.30;;;;;;;13.43;nan;102000.72;5052722;28;20036;-68
2022/07/02 01:04:18;;;;;;;5.25;1.50;;;;;;;13.46;nan;101999.78;5052502;28;20048;-69
2022/07/02 01:06:44;;;;;;;2.97;1.55;;;;;;;13.54;nan;101995.19;5052545;28;20553;-69
2022/07/02 01:11:58;;;;;;;4.45;1.25;;;;;;;13.50;nan;101983.81;5051450;28;20178;-69
2022/07/02 01:14:24;;;;;;;2.92;1.27;;;;;;;13.38;nan;101983.25;5052288;28;20044;-69
2022/07/02 01:16:50;;;;;;;1.75;1.15;;;;;;;13.51;nan;101996.09;5052174;28;20037;-69
2022/07/02 01:19:17;;;;;;;1.77;1.10;;;;;;;13.32;nan;101965.78;5052289;28;20032;-70
2022/07/02 01:22:10;;;;;;;8.35;1.67;;;;;;;13.41;nan;101994.63;5051018;28;20068;-69
2022/07/02 01:24:36;;;;;;;3.65;1.30;;;;;;;13.26;nan;101968.56;5052467;28;20134;-69
2022/07/02 01:27:01;;;;;;;3.97;1.60;;;;;;;13.16;nan;101963.56;5051085;28;20087;-69
2022/07/02 01:29:27;;;;;;;1.95;1.00;;;;;;;13.04;nan;101917.13;5052516;28;20037;-69
2022/07/02 01:31:52;;;;;;;4.28;1.23;;;;;;;13.43;nan;101986.63;5052233;28;20041;-70
2022/07/02 01:34:17;;;;;;;4.18;1.38;;;;;;;13.44;nan;101985.75;5052161;28;20487;-69
2022/07/02 01:36:42;;;;;;;2.33;1.10;;;;;;;13.09;nan;101931.13;5052375;28;20075;-69
2022/07/02 01:39:08;;;;;;;3.25;1.08;;;;;;;13.51;nan;101995.25;5052349;28;20125;-70
2022/07/02 01:41:39;;;;;;;3.17;1.08;;;;;;;13.47;nan;102004.16;5052263;28;20061;-69
2022/07/02 01:44:05;;;;;;;3.33;1.30;;;;;;;12.80;nan;101894.81;5052186;28;20074;-69
2022/07/02 01:46:30;;;;;;;4.90;1.10;;;;;;;13.37;nan;102008.81;5050175;28;20033;-69
2022/07/02 01:48:55;;;;;;;6.25;1.73;;;;;;;12.93;nan;101937.66;5050494;28;20048;-70
2022/07/02 01:51:21;;;;;;;3.33;1.38;;;;;;;13.02;nan;101963.84;5051024;28;20037;-68
2022/07/02 01:53:46;;;;;;;3.03;0.90;;;;;;;12.73;nan;101924.94;5051004;28;20057;-69
2022/07/02 01:56:11;;;;;;;6.32;1.23;;;;;;;12.96;nan;101977.22;5052145;28;20466;-70
2022/07/02 01:58:37;;;;;;;3.42;1.73;;;;;;;12.99;nan;101995.63;5052187;28;20063;-70
2022/07/02 02:01:02;;;;;;;4.65;1.40;;;;;;;12.64;nan;101938.34;5050796;28;20041;-69
2022/07/02 02:03:28;;;;;;;2.08;1.05;;;;;;;13.00;nan;102010.59;5051807;28;20399;-69
2022/07/02 02:05:53;;;;;;;5.32;1.27;;;;;;;12.58;nan;101933.22;5051988;28;20175;-70
2022/07/02 02:08:18;;;;;;;3.25;1.70;;;;;;;12.72;nan;101954.03;5054382;28;20056;-70
2022/07/02 02:10:43;;;;;;;3.20;1.20;;;;;;;12.97;nan;102010.69;5056015;28;20404;-69
2022/07/02 02:13:09;;;;;;;5.18;1.35;;;;;;;12.88;nan;101998.56;5054541;28;20472;-70
2022/07/02 02:15:34;;;;;;;2.53;1.25;;;;;;;12.77;nan;101997.06;5055823;28;20532;-70
2022/07/02 02:17:59;;;;;;;5.43;1.48;;;;;;;12.82;nan;101995.19;5054742;28;20033;-69
2022/07/02 02:20:25;;;;;;;4.40;1.38;;;;;;;12.72;nan;101972.53;5055945;28;20044;-69
2022/07/02 02:22:50;;;;;;;2.30;1.30;;;;;;;12.53;nan;101936.84;5055600;28;20044;-69
2022/07/02 02:25:15;;;;;;;5.18;1.50;;;;;;;12.82;nan;101984.59;5055478;28;20059;-69
2022/07/02 02:27:41;;;;;;;2.03;1.27;;;;;;;12.56;nan;101940.31;5055544;28;20479;-68
2022/07/02 02:30:06;;;;;;;5.32;1.30;;;;;;;12.82;nan;101984.59;5055330;28;20132;-69
2022/07/02 02:32:32;;;;;;;6.28;2.03;;;;;;;12.79;nan;101982.03;5055279;28;20466;-68
2022/07/02 02:34:57;;;;;;;3.60;1.30;;;;;;;12.74;nan;101976.88;5054188;28;20043;-68
2022/07/02 02:37:22;;;;;;;6.15;1.80;;;;;;;12.79;nan;101987.31;5055657;28;20033;-68
2022/07/02 02:39:48;;;;;;;4.35;1.58;;;;;;;12.72;nan;101972.53;5055300;28;20085;-69
2022/07/02 02:42:14;;;;;;;3.45;1.33;;;;;;;12.60;nan;101960.47;5055420;28;20468;-68
2022/07/02 02:44:39;;;;;;;4.30;1.42;;;;;;;12.75;nan;101996.25;5054133;28;20031;-68
2022/07/02 02:47:04;;;;;;;3.38;1.35;;;;;;;12.45;nan;101946.75;5055180;28;20036;-69
2022/07/02 02:49:30;;;;;;;3.47;0.90;;;;;;;12.67;nan;101996.41;5054960;28;20037;-69
2022/07/02 02:51:55;;;;;;;4.32;1.48;;;;;;;12.33;nan;101929.41;5055122;28;20071;-68
2022/07/02 02:54:20;;;;;;;3.83;1.25;;;;;;;12.22;nan;101927.00;5054055;28;20460;-70
2022/07/02 02:56:46;;;;;;;2.22;1.50;;;;;;;12.54;nan;101987.03;5055122;28;20033;-70
2022/07/02 02:59:11;;;;;;;3.42;1.67;;;;;;;12.52;nan;101985.31;5053855;28;20127;-69
2022/07/02 03:01:36;;;;;;;2.58;1.23;;;;;;;12.47;nan;101976.59;5055024;28;20037;-69
2022/07/02 03:04:02;;;;;;;2.95;1.38;;;;;;;12.39;nan;101966.22;5054839;28;20028;-69
2022/07/02 03:06:27;;;;;;;1.88;1.27;;;;;;;12.33;nan;101955.81;5055015;28;20033;-69
2022/07/02 03:08:52;;;;;;;5.30;1.40;;;;;;;12.42;nan;101968.81;5054874;28;20106;-70
2022/07/02 03:11:18;;;;;;;5.28;1.50;;;;;;;12.16;nan;101927.13;5053624;28;20491;-72
2022/07/02 03:13:43;;;;;;;3.05;1.52;;;;;;;12.51;nan;101983.56;5054823;28;20028;-71
2022/07/02 03:16:08;;;;;;;1.83;1.00;;;;;;;12.51;nan;101986.22;5053468;28;20041;-72
2022/07/02 03:18:34;;;;;;;5.47;1.30;;;;;;;12.56;nan;101994.91;5052693;28;20145;-71
2022/07/02 03:20:59;;;;;;;2.85;1.35;;;;;;;12.25;nan;101936.63;5054341;28;20449;-71
2022/07/02 03:23:24;;;;;;;4.03;1.20;;;;;;;12.57;nan;101986.97;5054494;28;20029;-72
2022/07/02 03:25:50;;;;;;;2.95;1.65;;;;;;;12.59;nan;101993.06;5054748;28;20064;-70
2022/07/02 03:28:15;;;;;;;2.65;1.50;;;;;;;12.47;nan;101988.03;5054534;28;20076;-70
2022/07/02 03:30:40;;;;;;;5.07;1.60;;;;;;;12.42;nan;101976.72;5053054;28;20168;-70
2022/07/02 03:33:05;;;;;;;4.13;1.30;;;;;;;12.60;nan;102009.78;5036367;28;20087;-71
2022/07/02 03:35:31;;;;;;;2.75;1.25;;;;;;;11.89;nan;101881.97;5054714;28;20094;-71
2022/07/02 03:37:56;;;;;;;1.75;1.30;;;;;;;12.53;nan;102006.41;5054391;28;20037;-71
2022/07/02 03:40:21;;;;;;;3.78;1.45;;;;;;;12.49;nan;102002.13;5036379;28;20506;-73
2022/07/02 03:42:47;;;;;;;4.93;1.60;;;;;;;12.49;nan;102006.53;5053168;28;20118;-72
2022/07/02 03:45:12;;;;;;;3.95;1.60;;;;;;;12.45;nan;102008.34;5036224;28;20029;-71
2022/07/02 03:47:37;;;;;;;3.90;1.75;;;;;;;12.51;nan;102010.84;5054061;28;20040;-70
2022/07/02 03:50:03;;;;;;;4.15;1.58;;;;;;;12.52;nan;102009.94;5052929;28;20462;-70
2022/07/02 03:52:28;;;;;;;6.82;1.50;;;;;;;12.52;nan;102002.00;5053758;28;20510;-71
2022/07/02 03:54:54;;;;;;;3.47;1.73;;;;;;;12.48;nan;102002.13;5053935;28;20208;-72
2022/07/02 03:57:19;;;;;;;2.63;1.60;;;;;;;12.55;nan;102020.44;5052881;28;20037;-72
2022/07/02 03:59:44;;;;;;;10.98;1.98;;;;;;;12.23;nan;101941.09;5052724;28;20091;-72
2022/07/02 04:02:10;;;;;;;4.57;1.60;;;;;;;12.51;nan;102002.94;5053738;28;20044;-71
2022/07/02 04:04:35;;;;;;;6.78;1.67;;;;;;;12.43;nan;101980.25;5053797;28;20407;-71
2022/07/02 04:07:01;;;;;;;5.03;1.65;;;;;;;12.65;nan;102011.41;5054087;28;20037;-71
2022/07/02 04:09:26;;;;;;;7.13;1.80;;;;;;;12.50;nan;101987.97;5053562;28;20101;-70
2022/07/02 04:11:51;;;;;;;6.13;1.83;;;;;;;12.60;nan;102015.94;5052324;28;20537;-71
2022/07/02 04:14:17;;;;;;;4.22;1.73;;;;;;;12.59;nan;102027.41;5052118;28;20095;-71
2022/07/02 04:16:42;;;;;;;4.25;1.85;;;;;;;12.60;nan;102012.44;5053448;28;20036;-71
2022/07/02 04:19:07;;;;;;;4.78;1.75;;;;;;;12.20;nan;101928.78;5053982;28;20037;-70
2022/07/02 04:21:33;;;;;;;4.53;1.90;;;;;;;12.63;nan;102002.66;5052448;28;20440;-71
2022/07/02 04:23:58;;;;;;;4.97;1.88;;;;;;;12.74;nan;102020.91;5053254;28;20474;-71
2022/07/02 04:26:23;;;;;;;5.35;1.90;;;;;;;12.75;nan;102020.00;5052120;28;20076;-70
2022/07/02 04:28:49;;;;;;;5.43;1.70;;;;;;;12.75;nan;102018.25;5051921;28;20041;-73
2022/07/02 04:31:14;;;;;;;5.57;2.28;;;;;;;12.43;nan;101951.19;5051869;28;20040;-71
2022/07/02 04:33:39;;;;;;;5.25;2.38;;;;;;;12.74;nan;102005.06;5052931;28;20146;-71
2022/07/02 04:36:05;;;;;;;4.25;2.08;;;;;;;12.83;nan;102018.94;5053315;28;20115;-71
2022/07/02 04:38:30;;;;;;;8.23;1.95;;;;;;;12.76;nan;102003.25;5053169;28;20037;-70
2022/07/02 04:40:55;;;;;;;3.10;1.55;;;;;;;12.81;nan;102010.16;5051840;28;20035;-70
2022/07/02 04:43:21;;;;;;;6.35;1.45;;;;;;;12.89;nan;102023.22;5052121;28;20033;-69
2022/07/02 04:45:46;;;;;;;3.67;1.67;;;;;;;12.88;nan;102010.88;5053042;28;20115;-70
2022/07/02 04:48:11;;;;;;;5.68;2.10;;;;;;;12.61;nan;101954.28;5052774;28;20115;-70
2022/07/02 04:50:37;;;;;;;4.30;2.28;;;;;;;13.02;nan;102016.72;5051654;28;20029;-71
2022/07/02 04:53:02;;;;;;;7.70;2.08;;;;;;;13.04;nan;102008.75;5053212;28;20531;-70
2022/07/02 04:55:28;;;;;;;6.88;1.85;;;;;;;13.13;nan;102011.22;5053161;28;20041;-70
2022/07/02 04:57:53;;;;;;;5.75;2.00;;;;;;;13.19;nan;102024.28;5052757;28;20119;-71
2022/07/02 05:00:18;;;;;;;4.20;1.88;;;;;;;13.11;nan;101992.75;5051504;28;20102;-71
2022/07/02 05:02:44;;;;;;;4.05;2.15;;;;;;;12.86;nan;101955.44;5052718;28;20044;-71
2022/07/02 05:05:09;;;;;;;6.63;1.95;;;;;;;13.18;nan;101990.81;5053035;28;20037;-71
2022/07/02 05:07:34;;;;;;;4.28;1.67;;;;;;;13.06;nan;101952.31;5051762;28;20043;-70
2022/07/02 05:10:00;;;;;;;5.80;2.00;;;;;;;12.78;nan;101883.41;5051448;28;20040;-68
2022/07/02 05:12:25;;;;;;;3.63;1.38;;;;;;;13.26;nan;101954.47;5052979;28;20041;-70
2022/07/02 05:14:51;;;;;;;3.30;1.48;;;;;;;13.66;nan;102015.16;5052425;28;20472;-71
2022/07/02 05:17:16;;;;;;;3.55;1.55;;;;;;;13.64;nan;102001.94;5034489;28;20102;-70
2022/07/02 05:19:42;;;;;;;5.25;1.85;;;;;;;13.77;nan;102013.97;5051417;28;20040;-69
2022/07/02 05:22:07;;;;;;;4.45;1.85;;;;;;;13.47;nan;101953.91;5052448;28;20041;-71
2022/07/02 05:24:33;;;;;;;2.50;1.73;;;;;;;13.91;nan;102018.88;5052435;28;20508;-71
2022/07/02 05:26:58;;;;;;;4.65;1.77;;;;;;;14.03;nan;102032.66;5034244;28;20044;-70
2022/07/02 05:29:23;;;;;;;6.22;1.58;;;;;;;13.86;nan;101968.72;5052304;28;20124;-70
2022/07/02 05:31:49;;;;;;;5.05;1.70;;;;;;;14.32;nan;102036.25;5050994;28;20120;-71
2022/07/02 05:34:14;;;;;;;4.53;1.45;;;;;;;14.50;nan;102035.75;5052460;28;20033;-70
2022/07/02 05:36:39;;;;;;;2.90;1.33;;;;;;;14.61;nan;102025.69;5052136;28;20034;-69
2022/07/02 05:39:04;;;;;;;5.45;1.40;;;;;;;14.70;nan;102029.84;5052680;28;20036;-69
2022/07/02 05:41:30;;;;;;;5.63;2.13;;;;;;;14.89;nan;102020.38;5050861;28;20086;-71
2022/07/02 05:43:55;;;;;;;5.30;1.60;;;;;;;15.05;nan;102034.91;5050662;28;20067;-70
2022/07/02 05:46:20;;;;;;;5.20;1.65;;;;;;;15.14;nan;102038.16;5052027;28;20112;-70
2022/07/02 05:48:46;;;;;;;3.35;1.55;;;;;;;15.25;nan;102031.59;5051845;28;20128;-69
2022/07/02 05:51:11;;;;;;;5.65;1.83;;;;;;;15.22;nan;102008.69;5052018;28;20037;-70
2022/07/02 05:53:36;;;;;;;4.95;1.80;;;;;;;15.12;nan;101980.75;5050742;28;20054;-72
2022/07/02 05:56:02;;;;;;;3.72;1.48;;;;;;;15.55;nan;102036.81;5052272;28;20044;-70
2022/07/02 05:58:27;;;;;;;3.30;1.42;;;;;;;15.60;nan;102042.81;5051924;28;20037;-70
2022/07/02 06:00:53;;;;;;;3.15;1.50;;;;;;;15.41;nan;101982.44;5051666;28;20043;-70
2022/07/02 06:03:18;;;;;;;3.50;1.50;;;;;;;15.71;nan;102022.06;5051955;28;20116;-68
2022/07/02 06:08:27;;;;;;;3.55;1.55;;;;;;;15.75;nan;101989.19;5050989;28;20142;-70
2022/07/02 06:10:53;;;;;;;4.60;1.40;;;;;;;16.16;nan;102048.78;5050499;28;20066;-70
2022/07/02 06:13:18;;;;;;;3.10;1.50;;;;;;;15.89;nan;101991.34;5051839;28;20033;-70
2022/07/02 06:15:44;;;;;;;4.40;1.70;;;;;;;16.33;nan;102050.81;5051730;28;20033;-68
2022/07/02 06:18:09;;;;;;;7.50;1.42;;;;;;;16.43;nan;102062.84;5051724;28;20037;-69
2022/07/02 06:20:35;;;;;;;4.32;1.25;;;;;;;16.54;nan;102062.47;5051967;28;20033;-70
2022/07/02 06:23:00;;;;;;;1.80;1.13;;;;;;;16.52;nan;102054.50;5051825;28;20029;-70
2022/07/02 06:25:26;;;;;;;5.72;2.03;;;;;;;16.55;nan;102040.31;5050659;28;20488;-70
2022/07/02 06:27:51;;;;;;;6.07;1.80;;;;;;;16.84;nan;102094.06;5050368;28;20029;-70
2022/07/02 06:30:17;;;;;;;4.63;1.48;;;;;;;16.88;nan;102082.41;5051583;28;20033;-70
2022/07/02 06:32:42;;;;;;;2.67;1.08;;;;;;;17.08;nan;102088.72;5051528;28;20037;-70
2022/07/02 06:35:08;;;;;;;4.57;1.10;;;;;;;17.20;nan;102091.75;5050547;28;20068;-68
2022/07/02 06:37:33;;;;;;;3.42;1.10;;;;;;;17.20;nan;102083.78;5051330;28;20029;-70
2022/07/02 06:39:59;;;;;;;6.50;1.15;;;;;;;17.34;nan;102102.72;5050326;28;20052;-69
2022/07/02 06:42:26;;;;;;;3.78;1.15;;;;;;;17.34;nan;102078.75;5051545;28;20029;-68
2022/07/02 06:44:54;;;;;;;5.35;1.30;;;;;;;17.54;nan;102114.38;5050118;28;20037;-69
2022/07/02 06:47:21;;;;;;;3.33;0.90;;;;;;;17.52;nan;102092.25;5050367;28;20025;-68
2022/07/02 06:49:47;;;;;;;2.47;0.82;;;;;;;17.30;nan;102049.69;5033857;28;20033;-69
2022/07/02 06:52:12;;;;;;;2.75;1.15;;;;;;;17.52;nan;102077.16;5050486;28;20025;-68
2022/07/02 06:54:38;;;;;;;1.45;0.88;;;;;;;17.87;nan;102118.31;5051671;28;20036;-68
2022/07/02 06:57:04;;;;;;;2.28;1.13;;;;;;;17.95;nan;102102.84;5053730;28;20079;-71
2022/07/02 06:59:30;;;;;;;2.60;0.90;;;;;;;17.72;nan;102039.06;5053738;28;20037;-68
2022/07/02 07:01:56;;;;;;;3.50;1.33;;;;;;;18.20;nan;102100.88;5050307;28;20047;-67
2022/07/02 07:04:21;;;;;;;3.15;0.98;;;;;;;18.29;nan;102096.94;5039019;28;20096;-69
2022/07/02 07:06:51;;;;;;;2.08;0.93;;;;;;;17.99;nan;102029.88;5032795;28;20377;-67
2022/07/02 07:09:17;;;;;;;2.08;1.05;;;;;;;18.12;nan;102041.72;5034937;28;20033;-66
2022/07/02 07:11:42;;;;;;;2.95;0.90;;;;;;;17.56;nan;101936.81;5033659;28;20033;-67
2022/07/02 07:14:07;;;;;;;6.93;1.00;;;;;;;18.72;nan;102111.88;5016246;28;20045;-67
2022/07/02 07:16:33;;;;;;;2.17;0.80;;;;;;;18.86;nan;102106.75;5034430;28;20484;-67
2022/07/02 07:19:07;;;;;;;2.67;1.02;;;;;;;18.94;nan;102109.97;5034589;28;20068;-66
2022/07/02 07:21:33;;;;;;;3.35;0.60;;;;;;;18.96;nan;102108.94;5034582;28;20369;-67
2022/07/02 07:23:59;;;;;;;2.30;0.65;;;;;;;19.14;nan;102122.34;5032892;28;20088;-65
2022/07/02 07:26:24;;;;;;;1.95;0.70;;;;;;;19.23;nan;102124.59;5034434;28;20497;-65
2022/07/02 07:28:50;;;;;;;2.95;0.70;;;;;;;19.35;nan;102119.50;5034281;28;20033;-65
2022/07/02 07:31:21;;;;;;;1.88;0.80;;;;;;;19.17;nan;102060.81;5034529;28;20045;-65
2022/07/02 07:33:50;;;;;;;3.67;1.00;;;;;;;19.26;nan;102055.91;5017668;28;20048;-66
2022/07/02 07:36:16;;;;;;;0.95;0.57;;;;;;;19.56;nan;102091.78;5033983;28;20112;-66
2022/07/02 07:38:41;;;;;;;1.20;0.60;;;;;;;19.86;nan;102128.56;5034236;28;20033;-64
2022/07/02 07:41:07;;;;;;;1.30;0.80;;;;;;;20.14;nan;102132.44;5032742;28;20041;-65
2022/07/02 07:43:32;;;;;;;2.70;0.60;;;;;;;19.92;nan;102056.13;5033378;28;20041;-66
2022/07/02 07:45:57;;;;;;;1.40;0.60;;;;;;;20.46;nan;102076.44;5034162;28;20033;-66
2022/07/02 07:48:23;;;;;;;3.70;0.52;;;;;;;21.09;nan;102136.28;5034504;28;20092;-65
2022/07/02 07:50:48;;;;;;;2.60;0.70;;;;;;;21.33;nan;102088.53;5032797;28;20025;-64
2022/07/02 07:53:14;;;;;;;1.42;0.60;;;;;;;22.09;nan;102117.94;5033816;28;20133;-65
2022/07/02 07:55:39;;;;;;;1.13;0.35;;;;;;;22.83;nan;102139.28;4999732;28;20366;-66
2022/07/02 07:58:05;;;;;;;2.15;0.63;;;;;;;23.18;nan;102142.41;5033793;28;20104;-69
2022/07/02 08:00:32;;;;;;;1.10;0.52;;;;;;;23.87;nan;102132.44;5032435;28;20060;-65
2022/07/02 08:02:57;;;;;;;2.65;0.40;;;;;;;23.87;nan;102110.91;5033951;28;20044;-65
2022/07/02 08:05:23;;;;;;;3.22;0.77;;;;;;;24.26;nan;102138.75;5033607;28;20396;-65
2022/07/02 08:07:48;;;;;;;2.63;0.75;;;;;;;24.14;nan;102110.03;5032448;28;20034;-64
2022/07/02 08:10:13;;;;;;;1.67;0.70;;;;;;;24.85;nan;102146.22;5033379;28;20175;-65
2022/07/02 08:12:40;;;;;;;2.50;0.40;;;;;;;25.10;nan;102148.00;5033801;28;20455;-66
2022/07/02 08:15:06;;;;;;;1.23;0.52;;;;;;;25.29;nan;102151.06;5033461;28;20035;-65
2022/07/02 08:17:32;;;;;;;1.60;0.70;;;;;;;25.65;nan;102123.25;5015836;28;20033;-68
2022/07/02 08:19:57;;;;;;;1.25;0.63;;;;;;;25.68;nan;102129.28;5033425;28;20026;-62
2022/07/02 08:22:23;;;;;;;3.78;0.73;;;;;;;25.79;nan;102133.00;5031976;28;20037;-64
2022/07/02 08:24:48;;;;;;;0.80;0.40;;;;;;;26.11;nan;102134.09;5033325;28;20049;-64
2022/07/02 08:27:14;;;;;;;1.35;0.50;;;;;;;26.11;nan;102139.47;5033239;28;20592;-64
2022/07/02 08:29:39;;;;;;;3.50;0.90;;;;;;;26.47;nan;102155.56;5033566;28;20073;-64
2022/07/02 08:32:05;;;;;;;2.65;0.40;;;;;;;26.21;nan;102130.56;5033196;28;20465;-64
2022/07/02 08:34:31;;;;;;;1.63;0.60;;;;;;;25.84;nan;102060.66;5033115;28;20104;-64
2022/07/02 08:36:56;;;;;;;1.13;0.50;;;;;;;26.12;nan;102127.72;5033054;28;20133;-62
2022/07/02 08:39:22;;;;;;;2.63;0.47;;;;;;;26.29;nan;102105.72;5032813;28;20037;-64
2022/07/02 08:41:48;;;;;;;1.95;0.40;;;;;;;26.55;nan;102128.81;5031968;28;20044;-66
2022/07/02 08:44:18;;;;;;;2.17;0.70;;;;;;;26.73;nan;102140.00;5031856;28;20037;-64
2022/07/02 08:46:43;;;;;;;2.15;0.40;;;;;;;26.77;nan;102138.75;5031691;28;20044;-64
2022/07/02 08:49:10;;;;;;;0.93;0.80;;;;;;;26.94;nan;102102.31;5031538;28;20120;-64
2022/07/02 08:51:36;;;;;;;1.00;0.50;;;;;;;26.97;nan;102118.28;5031584;28;20124;-64
2022/07/02 08:54:01;;;;;;;1.10;0.45;;;;;;;27.26;nan;102133.00;5032575;28;20057;-65
2022/07/02 08:56:27;;;;;;;3.13;0.93;;;;;;;27.16;nan;102113.09;5031640;28;20038;-68
2022/07/02 08:58:53;;;;;;;0.93;0.50;;;;;;;27.15;nan;102101.41;5032819;28;20087;-67
2022/07/02 09:01:19;;;;;;;1.98;0.50;;;;;;;27.57;nan;102118.66;5014992;28;20452;-67
2022/07/02 09:03:44;;;;;;;2.60;0.68;;;;;;;27.07;nan;102089.50;5031134;28;20108;-67
2022/07/02 09:06:10;;;;;;;1.73;0.60;;;;;;;27.31;nan;102107.28;5031261;28;20087;-66
2022/07/02 09:08:36;;;;;;;3.45;0.73;;;;;;;27.42;nan;102124.47;5032303;28;20087;-66
2022/07/02 09:11:02;;;;;;;0.65;0.60;;;;;;;27.73;nan;102126.34;5030893;28;20034;-66
2022/07/02 09:13:27;;;;;;;1.50;0.93;;;;;;;27.39;nan;102077.75;5031278;28;20084;-66
2022/07/02 09:15:54;;;;;;;1.45;0.60;;;;;;;27.46;nan;102088.09;5032606;28;20065;-69
2022/07/02 09:18:19;;;;;;;1.23;0.60;;;;;;;27.91;nan;102106.69;5030624;28;20038;-67
2022/07/02 09:20:45;;;;;;;2.22;0.93;;;;;;;27.86;nan;102083.72;5031210;28;20044;-66
2022/07/02 09:23:20;;;;;;;1.92;0.60;;;;;;;27.96;nan;102110.88;5032019;28;20029;-64
2022/07/02 09:25:47;;;;;;;2.53;0.80;;;;;;;28.07;nan;102118.97;5030932;28;20485;-65
2022/07/02 09:28:13;;;;;;;2.25;0.70;;;;;;;27.86;nan;102092.72;5032331;28;20033;-65
2022/07/02 09:30:39;;;;;;;1.25;0.65;;;;;;;27.80;nan;102066.16;5032226;28;20033;-66
2022/07/02 09:33:35;;;;;;;1.10;0.50;;;;;;;28.06;nan;102074.78;5030816;28;20400;-69
2022/07/02 09:36:10;;;;;;;1.27;0.60;;;;;;;28.00;nan;102072.56;5031079;28;20086;-64
2022/07/02 09:38:46;;;;;;;1.45;0.60;;;;;;;28.24;nan;102110.22;5030898;28;20029;-65
2022/07/02 09:41:13;;;;;;;0.98;0.57;;;;;;;28.29;nan;102070.94;5030579;28;20030;-68
2022/07/02 09:43:39;;;;;;;0.95;0.38;;;;;;;28.04;nan;102060.53;5014269;28;20033;-67
2022/07/02 09:46:15;;;;;;;2.50;0.68;;;;;;;28.25;nan;102061.38;5030704;28;20026;-67
2022/07/02 09:48:40;;;;;;;3.70;1.00;;;;;;;28.45;nan;102057.78;5030982;28;20120;-64
2022/07/02 09:51:06;;;;;;;0.65;0.43;;;;;;;28.51;nan;102085.31;5031925;28;20524;-63
2022/07/02 09:53:32;;;;;;;2.10;0.50;;;;;;;28.60;nan;102055.56;5030906;28;20038;-64
2022/07/02 09:55:57;;;;;;;1.80;0.50;;;;;;;28.76;nan;102092.97;5013387;28;20069;-67
2022/07/02 09:58:24;;;;;;;1.30;0.50;;;;;;;28.87;nan;102065.78;5030200;28;20108;-68
2022/07/02 10:00:50;;;;;;;1.25;0.55;;;;;;;29.05;nan;102099.34;5029544;28;20458;-65
2022/07/02 10:03:15;;;;;;;2.05;0.98;;;;;;;29.31;nan;102103.28;5029817;28;20112;-71
2022/07/02 10:05:45;;;;;;;1.48;0.70;;;;;;;29.06;nan;102059.56;5031190;28;20480;-68
2022/07/02 10:08:11;;;;;;;1.40;0.90;;;;;;;29.58;nan;102089.03;5030495;28;20030;-64
2022/07/02 10:10:40;;;;;;;1.35;0.57;;;;;;;29.16;nan;102052.31;5031856;28;20504;-66
2022/07/02 10:13:07;;;;;;;2.73;0.77;;;;;;;29.14;nan;102094.94;5030721;28;20468;-65
2022/07/02 10:15:33;;;;;;;1.00;0.50;;;;;;;29.05;nan;102050.56;5031883;28;20303;-65
2022/07/02 10:18:05;;;;;;;1.50;0.40;;;;;;;29.42;nan;102102.34;5030806;28;20061;-68
2022/07/02 10:20:33;;;;;;;1.20;0.70;;;;;;;28.18;nan;102043.94;5030562;28;20038;-66
2022/07/02 10:23:03;;;;;;;3.97;0.65;;;;;;;27.85;nan;102071.19;5031709;28;20030;-68
2022/07/02 10:25:29;;;;;;;1.55;0.90;;;;;;;27.77;nan;102041.22;5030254;28;20049;-67
2022/07/02 10:27:55;;;;;;;1.83;1.05;;;;;;;28.62;nan;102080.66;5032054;28;20033;-64
2022/07/02 10:30:23;;;;;;;2.70;0.90;;;;;;;29.17;nan;102087.41;5034446;28;20041;-63
2022/07/02 10:32:54;;;;;;;1.05;0.65;;;;;;;29.33;nan;102079.63;5034543;28;20099;-63
2022/07/02 10:35:22;;;;;;;4.15;0.70;;;;;;;29.17;nan;102041.31;5035489;28;20440;-67
2022/07/02 10:37:48;;;;;;;1.42;0.60;;;;;;;29.07;nan;102037.75;5034178;28;20592;-65
2022/07/02 10:40:19;;;;;;;1.95;0.60;;;;;;;28.33;nan;101996.56;5035158;28;20046;-65
2022/07/02 10:42:48;;;;;;;1.70;0.98;;;;;;;28.22;nan;102060.78;5035362;28;20061;-66
2022/07/02 10:45:21;;;;;;;1.88;0.82;;;;;;;27.61;nan;102028.13;5034138;28;20041;-65
2022/07/02 10:48:02;;;;;;;1.25;0.60;;;;;;;28.34;nan;102046.16;5035287;28;20041;-66
2022/07/02 10:50:34;;;;;;;1.45;0.68;;;;;;;29.14;nan;102074.13;5033684;28;20028;-65
2022/07/02 10:53:06;;;;;;;1.63;0.70;;;;;;;29.24;nan;102018.09;5034972;28;20025;-64
2022/07/02 10:55:32;;;;;;;1.05;0.60;;;;;;;29.92;nan;102048.75;5035110;28;20376;-64
2022/07/02 10:58:05;;;;;;;2.05;0.95;;;;;;;29.87;nan;102032.91;5034878;28;20040;-64
2022/07/02 11:00:34;;;;;;;0.90;0.70;;;;;;;30.02;nan;102033.31;5034918;28;20522;-65
2022/07/02 11:03:13;;;;;;;2.30;0.68;;;;;;;30.46;nan;102062.53;5034770;28;20040;-66
2022/07/02 11:05:57;;;;;;;0.95;0.60;;;;;;;30.35;nan;102072.69;5035027;28;20043;-68
2022/07/02 11:08:43;;;;;;;1.42;0.68;;;;;;;30.21;nan;102073.16;5034810;28;20032;-65
2022/07/02 11:11:09;;;;;;;1.17;0.60;;;;;;;29.66;nan;102069.31;5034698;28;20029;-65
2022/07/02 11:13:40;;;;;;;1.88;1.00;;;;;;;28.56;nan;102055.94;5033309;28;20168;-64
2022/07/02 11:16:22;;;;;;;1.35;0.65;;;;;;;28.53;nan;102050.78;5034894;28;20366;-64
2022/07/02 11:18:48;;;;;;;1.65;0.65;;;;;;;29.08;nan;102060.25;5034949;28;20499;-63
2022/07/02 11:21:14;;;;;;;2.08;0.60;;;;;;;29.41;nan;102063.50;5034552;28;20029;-68
2022/07/02 11:23:40;;;;;;;2.03;0.70;;;;;;;28.87;nan;102015.13;5034679;28;20040;-66
2022/07/02 11:26:07;;;;;;;1.67;0.70;;;;;;;28.41;nan;102018.41;5034772;28;20060;-65
2022/07/02 11:28:32;;;;;;;1.45;0.90;;;;;;;27.88;nan;102055.53;5033282;28;20034;-65
2022/07/02 11:30:58;;;;;;;1.17;0.40;;;;;;;27.23;nan;102055.66;5034371;28;20040;-63
2022/07/02 11:33:23;;;;;;;4.30;0.68;;;;;;;27.24;nan;102049.28;5034739;28;20044;-66
2022/07/02 11:35:52;;;;;;;1.85;0.70;;;;;;;26.76;nan;102005.56;5034473;28;20093;-66
2022/07/02 11:38:18;;;;;;;3.13;0.98;;;;;;;26.30;nan;102041.78;5033056;28;20037;-69
2022/07/02 11:40:44;;;;;;;0.47;0.32;;;;;;;26.73;nan;102030.13;5031601;28;20045;-66
2022/07/02 11:43:16;;;;;;;1.60;0.68;;;;;;;27.70;nan;102031.94;5034106;28;20033;-66